Ayr Alva Beach, Queensland

11:27 AM AEST on February 09, 2016 (GMT +1000)
AYR Live Weather | | Change Station
CLOSE
Current Station
Personal Weather Station
Location: Ayr, QLD
Elevation: 39 ft
Nearby Weather Stations

Elev 39 ft 19.58 °S, 147.42 °E | Updated 8 seconds ago

Scattered Clouds
Scattered Clouds
90.8 °F
Feels Like 99 °F
N
0.0
Wind Variable Wind from North
Gusts 4.0 mph

Today
High -- | Low -- °F
--% Chance of Precip.
Yesterday
High -- | Low -- °F
Precip. -- in
Pressure 29.80 in
Visibility 6.2 miles
Clouds Few 4000 ft
Scattered Clouds 26000 ft
Heat Index 99 °F
Dew Point 72 °F
Humidity 55%
Rainfall 0.00 in
Snow Depth Not available.
5:58 AM 6:49 PM
New Moon, 0% visible
METAR YBTL 090100Z 11008KT 090V150 9999 FEW040 SCT260 31/20 Q1009 NOSIG
Pressure 29.80 in
Visibility 6.2 miles
Clouds Few 4000 ft
Scattered Clouds 26000 ft
Heat Index 99 °F
Dew Point 72 °F
Humidity 55%
Rainfall 0.00 in
Snow Depth Not available.
5:58 AM 6:49 PM
New Moon, 0% visible
METAR YBTL 090100Z 11008KT 090V150 9999 FEW040 SCT260 31/20 Q1009 NOSIG

10-Day Weather Forecast

Almanac

Astronomy

Feb. 09, 2016 Rise Set
Actual Time
Civil Twilight
Nautical Twilight
Astronomical Twilight
Moon
Length of Visible Light
Length of Day
Tomorrow will be .
, % of the Moon is Illuminated

Today's Extremes

Country Highs Country Lows

Community

WunderPhotos

Upload Photos

1,891,527 photos uploaded!

WunderBlog® & News

Nearby

Air Quality

  Air Quality AQ Index Pollutant
Not available.

Snow Depth

Station Depth Elevation

Earthquake Activity

City Distance Mag. Time & Date
Minimum magnitude displayed is 2.5.

Coastal Water Temperatures

Place Temperature

Stations

Nearby Weather Stations

Station Location Temp. Windchill Dew Point Humidity Wind Precip. Elev Updated Type